createdAt,value
2023-01-22T00:01:02.249Z,9.55
2023-01-22T00:03:28.652Z,8.60
2023-01-22T00:05:54.969Z,8.38
2023-01-22T00:08:21.360Z,8.93
2023-01-22T00:10:54.407Z,8.05
2023-01-22T00:13:21.741Z,8.77
2023-01-22T00:15:48.356Z,8.77
2023-01-22T00:18:15.106Z,9.20
2023-01-22T00:20:41.777Z,8.90
2023-01-22T00:23:08.265Z,8.80
2023-01-22T00:25:34.684Z,8.93
2023-01-22T00:28:01.015Z,8.65
2023-01-22T00:30:27.407Z,8.30
2023-01-22T00:32:53.761Z,8.65
2023-01-22T00:35:20.113Z,7.85
2023-01-22T00:37:47.182Z,7.55
2023-01-22T00:40:14.182Z,7.28
2023-01-22T00:42:40.745Z,7.13
2023-01-22T00:45:07.417Z,6.40
2023-01-22T00:47:33.734Z,6.78
2023-01-22T00:50:00.649Z,6.28
2023-01-22T00:52:27.010Z,6.65
2023-01-22T00:54:53.349Z,7.07
2023-01-22T00:57:21.826Z,5.82
2023-01-22T00:59:48.577Z,6.03
2023-01-22T01:02:15.250Z,6.05
2023-01-22T01:04:41.852Z,5.88
2023-01-22T01:07:08.488Z,5.78
2023-01-22T01:09:34.788Z,5.70
2023-01-22T01:12:01.582Z,6.45
2023-01-22T01:14:28.260Z,5.70
2023-01-22T01:16:56.761Z,5.75
2023-01-22T01:19:24.636Z,5.82
2023-01-22T01:21:51.213Z,5.15
2023-01-22T01:24:17.544Z,4.97
2023-01-22T01:26:43.912Z,4.88
2023-01-22T01:29:11.662Z,4.63
2023-01-22T01:31:38.703Z,4.80
2023-01-22T01:34:05.173Z,4.70
2023-01-22T01:36:47.608Z,4.30
2023-01-22T01:39:15.190Z,5.20
2023-01-22T01:41:41.623Z,5.15
2023-01-22T01:44:21.595Z,4.72
2023-01-22T01:46:49.833Z,4.85
2023-01-22T01:49:18.339Z,4.45
2023-01-22T01:51:45.378Z,4.55
2023-01-22T01:54:12.322Z,3.90
2023-01-22T01:56:42.246Z,4.32
2023-01-22T01:59:10.558Z,4.32
2023-01-22T02:01:36.918Z,4.22
2023-01-22T02:04:03.573Z,4.63
2023-01-22T02:06:30.003Z,4.28
2023-01-22T02:08:57.708Z,4.10
2023-01-22T02:11:24.903Z,4.28
2023-01-22T02:14:20.545Z,4.93
2023-01-22T02:16:46.962Z,4.68
2023-01-22T02:19:13.307Z,4.57
2023-01-22T02:21:40.935Z,4.30
2023-01-22T02:24:09.062Z,3.97
2023-01-22T02:26:35.627Z,3.85
2023-01-22T02:29:02.167Z,4.50
2023-01-22T02:31:28.957Z,4.28
2023-01-22T02:33:55.384Z,4.55
2023-01-22T02:36:21.805Z,3.75
2023-01-22T02:38:48.217Z,4.03
2023-01-22T02:41:15.761Z,3.67
2023-01-22T02:43:42.123Z,3.63
2023-01-22T02:46:08.519Z,3.80
2023-01-22T02:48:35.208Z,3.83
2023-01-22T02:51:01.570Z,4.25
2023-01-22T02:53:28.022Z,3.80
2023-01-22T02:55:54.437Z,4.30
2023-01-22T02:58:20.814Z,3.65
2023-01-22T03:00:47.208Z,3.55
2023-01-22T03:03:16.576Z,3.97
2023-01-22T03:05:50.101Z,4.18
2023-01-22T03:08:16.618Z,3.88
2023-01-22T03:10:43.444Z,3.67
2023-01-22T03:13:28.376Z,4.15
2023-01-22T03:16:13.265Z,4.28
2023-01-22T03:18:58.019Z,3.90
2023-01-22T03:21:24.475Z,4.18
2023-01-22T03:23:52.446Z,4.38
2023-01-22T03:26:19.589Z,4.20
2023-01-22T03:28:46.186Z,4.35
2023-01-22T03:31:13.708Z,4.13
2023-01-22T03:33:40.259Z,4.25
2023-01-22T03:36:07.986Z,4.30
2023-01-22T03:38:34.314Z,4.30
2023-01-22T03:41:01.677Z,4.28
2023-01-22T03:43:28.028Z,4.90
2023-01-22T03:45:54.440Z,3.88
2023-01-22T03:48:20.882Z,4.35
2023-01-22T03:50:47.280Z,3.78
2023-01-22T03:53:13.626Z,4.30
2023-01-22T03:55:39.997Z,3.97
2023-01-22T03:58:06.414Z,4.03
2023-01-22T04:00:32.992Z,4.00
2023-01-22T04:02:59.398Z,3.80
2023-01-22T04:05:25.745Z,3.65
2023-01-22T04:07:52.099Z,4.32
2023-01-22T04:10:18.837Z,3.85
2023-01-22T04:12:45.392Z,3.53
2023-01-22T04:15:11.912Z,3.63
2023-01-22T04:17:38.277Z,3.83
2023-01-22T04:20:04.814Z,3.38
2023-01-22T04:22:31.204Z,3.40
2023-01-22T04:24:57.583Z,3.60
2023-01-22T04:27:23.974Z,3.72
2023-01-22T04:29:50.340Z,2.47
2023-01-22T04:32:16.684Z,2.83
2023-01-22T04:34:44.221Z,3.42
2023-01-22T04:37:10.616Z,3.20
2023-01-22T04:39:37.008Z,3.25
2023-01-22T04:42:03.396Z,3.33
2023-01-22T04:44:29.704Z,2.97
2023-01-22T04:46:56.043Z,2.67
2023-01-22T04:49:22.385Z,3.17
2023-01-22T04:51:48.697Z,2.90
2023-01-22T04:54:14.992Z,3.08
2023-01-22T04:56:41.322Z,2.72
2023-01-22T04:59:07.697Z,3.20
2023-01-22T05:01:34.064Z,3.00
2023-01-22T05:04:01.581Z,3.30
2023-01-22T05:06:27.952Z,3.03
2023-01-22T05:08:54.253Z,3.55
2023-01-22T05:11:20.631Z,2.60
2023-01-22T05:13:47.071Z,3.22
2023-01-22T05:16:13.445Z,3.25
2023-01-22T05:18:39.850Z,3.20
2023-01-22T05:21:06.231Z,3.10
2023-01-22T05:23:32.561Z,2.67
2023-01-22T05:25:59.013Z,3.20
2023-01-22T05:28:25.355Z,2.90
2023-01-22T05:30:51.820Z,3.28
2023-01-22T05:33:18.220Z,3.10
2023-01-22T05:35:44.644Z,3.35
2023-01-22T05:38:11.003Z,3.38
2023-01-22T05:40:37.384Z,3.15
2023-01-22T05:43:04.920Z,3.53
2023-01-22T05:45:31.240Z,3.17
2023-01-22T05:47:58.333Z,3.63
2023-01-22T05:50:24.779Z,3.15
2023-01-22T05:52:53.737Z,3.50
2023-01-22T05:55:20.090Z,3.47
2023-01-22T05:57:46.771Z,3.45
2023-01-22T06:00:13.562Z,3.88
2023-01-22T06:02:40.026Z,3.70
2023-01-22T06:05:06.751Z,3.53
2023-01-22T06:07:33.078Z,3.70
2023-01-22T06:09:59.485Z,3.90
2023-01-22T06:12:25.852Z,2.72
2023-01-22T06:14:54.142Z,3.35
2023-01-22T06:17:20.940Z,3.40
2023-01-22T06:19:47.304Z,3.55
2023-01-22T06:22:13.726Z,3.22
2023-01-22T06:24:40.260Z,3.45
2023-01-22T06:27:06.589Z,2.72
2023-01-22T06:29:32.952Z,3.30
2023-01-22T06:31:59.341Z,2.88
2023-01-22T06:34:26.107Z,3.13
2023-01-22T06:36:52.453Z,2.90
2023-01-22T06:39:18.750Z,3.25
2023-01-22T06:41:46.661Z,3.13
2023-01-22T06:44:13.052Z,2.95
2023-01-22T06:46:39.540Z,3.33
2023-01-22T06:49:05.934Z,3.15
2023-01-22T06:51:32.271Z,3.42
2023-01-22T06:53:59.149Z,3.38
2023-01-22T06:56:25.462Z,3.60
2023-01-22T06:58:51.823Z,2.67
2023-01-22T07:01:18.227Z,3.47
2023-01-22T07:03:46.135Z,3.45
2023-01-22T07:06:12.816Z,2.70
2023-01-22T07:08:39.244Z,3.50
2023-01-22T07:11:07.766Z,2.78
2023-01-22T07:13:34.358Z,2.90
2023-01-22T07:16:01.909Z,2.35
2023-01-22T07:18:28.494Z,3.08
2023-01-22T07:20:54.911Z,2.45
2023-01-22T07:23:21.315Z,2.72
2023-01-22T07:25:47.653Z,2.83
2023-01-22T07:28:17.327Z,3.03
2023-01-22T07:30:46.373Z,2.53
2023-01-22T07:33:13.391Z,2.97
2023-01-22T07:35:40.109Z,2.67
2023-01-22T07:38:06.718Z,2.47
2023-01-22T07:40:33.291Z,2.20
2023-01-22T07:42:59.786Z,2.70
2023-01-22T07:45:26.195Z,2.35
2023-01-22T07:47:54.594Z,2.53
2023-01-22T07:50:22.105Z,1.75
2023-01-22T07:52:48.743Z,1.95
2023-01-22T07:55:15.376Z,1.65
2023-01-22T07:57:41.821Z,1.98
2023-01-22T08:00:10.683Z,2.15
2023-01-22T08:02:38.027Z,1.98
2023-01-22T08:05:04.704Z,2.42
2023-01-22T08:07:31.138Z,2.20
2023-01-22T08:09:57.568Z,1.52
2023-01-22T08:12:23.918Z,1.75
2023-01-22T08:14:50.365Z,1.90
2023-01-22T08:17:16.783Z,1.88
2023-01-22T08:19:43.104Z,1.90
2023-01-22T08:22:09.705Z,2.25
2023-01-22T08:24:36.560Z,1.80
2023-01-22T08:27:02.966Z,1.88
2023-01-22T08:29:29.307Z,1.67
2023-01-22T08:31:55.843Z,1.80
2023-01-22T08:34:22.255Z,1.80
2023-01-22T08:36:48.717Z,1.90
2023-01-22T08:39:15.236Z,2.05
2023-01-22T08:41:41.824Z,1.70
2023-01-22T08:44:11.722Z,1.50
2023-01-22T08:46:40.224Z,2.03
2023-01-22T08:49:07.054Z,2.60
2023-01-22T08:51:33.839Z,1.80
2023-01-22T08:54:00.204Z,1.70
2023-01-22T08:56:26.578Z,1.60
2023-01-22T08:58:53.039Z,1.80
2023-01-22T09:01:20.066Z,1.50
2023-01-22T09:03:46.484Z,2.03
2023-01-22T09:06:12.816Z,1.95
2023-01-22T09:08:39.383Z,1.85
2023-01-22T09:11:06.156Z,1.55
2023-01-22T09:13:32.728Z,1.90
2023-01-22T09:15:59.207Z,2.15
2023-01-22T09:18:25.768Z,1.58
2023-01-22T09:20:52.163Z,1.52
2023-01-22T09:23:18.816Z,2.33
2023-01-22T09:25:45.209Z,1.95
2023-01-22T09:28:12.338Z,2.10
2023-01-22T09:30:42.788Z,1.70
2023-01-22T09:33:09.271Z,2.13
2023-01-22T09:35:35.832Z,1.95
2023-01-22T09:38:03.417Z,1.98
2023-01-22T09:40:31.772Z,2.20
2023-01-22T09:43:05.451Z,2.40
2023-01-22T09:45:32.550Z,2.13
2023-01-22T09:48:02.734Z,2.40
2023-01-22T09:50:33.933Z,2.28
2023-01-22T09:53:03.592Z,2.55
2023-01-22T09:55:31.256Z,2.00
2023-01-22T09:58:00.158Z,2.00
2023-01-22T10:00:46.821Z,2.28
2023-01-22T10:03:20.484Z,2.22
2023-01-22T10:06:00.723Z,2.13
2023-01-22T10:08:32.691Z,1.63
2023-01-22T10:11:01.077Z,1.88
2023-01-22T10:13:32.486Z,2.00
2023-01-22T10:15:59.302Z,2.10
2023-01-22T10:18:37.588Z,2.40
2023-01-22T10:21:05.117Z,1.65
2023-01-22T10:23:32.480Z,2.00
2023-01-22T10:26:25.268Z,2.20
2023-01-22T10:28:54.331Z,1.90
2023-01-22T10:31:28.511Z,1.88
2023-01-22T10:33:55.834Z,2.25
2023-01-22T10:36:22.168Z,2.05
2023-01-22T10:38:48.480Z,1.75
2023-01-22T10:41:17.774Z,2.10
2023-01-22T10:43:44.597Z,1.42
2023-01-22T10:46:23.262Z,1.70
2023-01-22T10:48:59.788Z,2.10
2023-01-22T10:51:32.672Z,1.95
2023-01-22T10:53:59.525Z,1.67
2023-01-22T10:56:30.995Z,2.22
2023-01-22T10:58:58.185Z,1.67
2023-01-22T11:01:45.494Z,2.30
2023-01-22T11:04:21.751Z,1.88
2023-01-22T11:06:50.493Z,1.85
2023-01-22T11:09:25.917Z,2.13
2023-01-22T11:11:59.820Z,1.90
2023-01-22T11:14:29.231Z,1.90
2023-01-22T11:16:58.493Z,2.00
2023-01-22T11:19:36.902Z,1.70
2023-01-22T11:22:05.817Z,1.70
2023-01-22T11:24:32.462Z,2.25
2023-01-22T11:27:14.508Z,2.00
2023-01-22T11:29:47.042Z,1.30
2023-01-22T11:32:32.034Z,2.00
2023-01-22T11:35:10.319Z,1.85
2023-01-22T11:37:42.480Z,1.60
2023-01-22T11:40:28.120Z,1.52
2023-01-22T11:43:13.053Z,1.40
2023-01-22T11:45:47.451Z,1.60
2023-01-22T11:48:28.753Z,1.85
2023-01-22T11:51:21.344Z,1.60
2023-01-22T11:53:50.472Z,1.95
2023-01-22T11:56:29.861Z,1.98
2023-01-22T11:58:59.015Z,2.15
2023-01-22T12:01:37.348Z,1.80
2023-01-22T12:04:04.268Z,2.05
2023-01-22T12:06:46.023Z,2.13
2023-01-22T12:09:18.347Z,1.92
2023-01-22T12:11:50.723Z,1.92
2023-01-22T12:14:36.214Z,1.80
2023-01-22T12:17:05.506Z,2.20
2023-01-22T12:19:37.656Z,1.83
2023-01-22T12:22:09.302Z,2.20
2023-01-22T12:24:35.614Z,1.80
2023-01-22T12:27:14.161Z,2.05
2023-01-22T12:29:43.254Z,1.83
2023-01-22T12:32:12.343Z,1.95
2023-01-22T12:34:50.402Z,2.20
2023-01-22T12:37:21.584Z,1.58
2023-01-22T12:40:07.489Z,2.15
2023-01-22T12:42:43.988Z,2.47
2023-01-22T12:45:10.447Z,1.83
2023-01-22T12:47:45.594Z,2.10
2023-01-22T12:50:19.518Z,2.00
2023-01-22T12:52:47.993Z,2.35
2023-01-22T12:55:44.230Z,2.58
2023-01-22T12:58:23.629Z,2.38
2023-01-22T13:01:01.973Z,2.20
2023-01-22T13:03:32.031Z,2.42
2023-01-22T13:05:59.939Z,2.70
2023-01-22T13:08:35.576Z,1.85
2023-01-22T13:11:03.568Z,2.10
2023-01-22T13:13:48.590Z,3.00
2023-01-22T13:16:14.912Z,1.88
2023-01-22T13:18:43.612Z,2.20
2023-01-22T13:21:14.194Z,2.42
2023-01-22T13:23:41.868Z,2.38
2023-01-22T13:26:15.472Z,2.88
2023-01-22T13:28:47.513Z,2.20
2023-01-22T13:31:15.875Z,1.95
2023-01-22T13:33:52.441Z,2.65
2023-01-22T13:36:18.749Z,2.65
2023-01-22T13:38:51.025Z,2.63
2023-01-22T13:41:28.313Z,2.60
2023-01-22T13:43:54.870Z,2.85
2023-01-22T13:46:21.227Z,2.25
2023-01-22T13:48:47.652Z,2.90
2023-01-22T13:51:18.509Z,2.60
2023-01-22T13:53:53.807Z,2.63
2023-01-22T13:56:22.064Z,2.50
2023-01-22T13:58:49.392Z,2.70
2023-01-22T14:01:29.391Z,2.80
2023-01-22T14:04:00.276Z,2.78
2023-01-22T14:06:26.927Z,2.95
2023-01-22T14:08:54.573Z,3.10
2023-01-22T14:11:21.225Z,3.50
2023-01-22T14:13:49.020Z,2.75
2023-01-22T14:16:15.925Z,2.97
2023-01-22T14:18:45.123Z,2.90
2023-01-22T14:21:11.907Z,3.05
2023-01-22T14:23:38.540Z,2.72
2023-01-22T14:26:06.442Z,2.70
2023-01-22T14:28:33.931Z,2.85
2023-01-22T14:31:00.403Z,2.08
2023-01-22T14:33:28.321Z,3.13
2023-01-22T14:35:54.788Z,2.40
2023-01-22T14:38:21.427Z,2.40
2023-01-22T14:40:47.884Z,2.45
2023-01-22T14:43:14.292Z,2.70
2023-01-22T14:45:40.992Z,2.65
2023-01-22T14:48:07.424Z,2.20
2023-01-22T14:50:34.887Z,3.25
2023-01-22T14:53:01.260Z,2.60
2023-01-22T14:55:27.750Z,3.28
2023-01-22T14:57:54.785Z,2.92
2023-01-22T15:00:21.491Z,3.28
2023-01-22T15:02:48.163Z,2.75
2023-01-22T15:05:14.453Z,2.47
2023-01-22T15:07:40.805Z,3.20
2023-01-22T15:10:08.253Z,2.88
2023-01-22T15:12:34.666Z,2.97
2023-01-22T15:15:01.173Z,3.03
2023-01-22T15:17:27.895Z,2.75
2023-01-22T15:19:54.238Z,2.40
2023-01-22T15:22:20.698Z,2.83
2023-01-22T15:24:46.997Z,2.67
2023-01-22T15:27:18.331Z,3.10
2023-01-22T15:29:45.503Z,3.13
2023-01-22T15:32:11.914Z,2.83
2023-01-22T15:34:38.277Z,2.63
2023-01-22T15:37:05.015Z,2.75
2023-01-22T15:39:31.328Z,3.03
2023-01-22T15:41:57.650Z,3.17
2023-01-22T15:44:24.001Z,3.03
2023-01-22T15:46:50.414Z,3.10
2023-01-22T15:49:18.085Z,3.20
2023-01-22T15:51:44.594Z,3.67
2023-01-22T15:54:14.142Z,3.22
2023-01-22T15:56:40.613Z,3.03
2023-01-22T15:59:07.411Z,2.88
2023-01-22T16:01:33.901Z,3.03
2023-01-22T16:04:01.735Z,2.80
2023-01-22T16:06:28.958Z,3.35
2023-01-22T16:08:57.534Z,3.38
2023-01-22T16:11:24.692Z,3.55
2023-01-22T16:13:51.228Z,3.72
2023-01-22T16:16:37.174Z,3.05
2023-01-22T16:19:04.790Z,3.40
2023-01-22T16:21:31.142Z,3.42
2023-01-22T16:23:58.757Z,3.67
2023-01-22T16:26:26.422Z,3.70
2023-01-22T16:28:54.422Z,3.75
2023-01-22T16:31:23.366Z,3.70
2023-01-22T16:33:54.437Z,3.97
2023-01-22T16:36:21.550Z,3.70
2023-01-22T16:38:48.631Z,4.03
2023-01-22T16:41:24.253Z,3.83
2023-01-22T16:43:55.813Z,4.40
2023-01-22T16:46:23.563Z,3.85
2023-01-22T16:48:54.937Z,3.85
2023-01-22T16:51:24.736Z,3.40
2023-01-22T16:53:51.674Z,3.88
2023-01-22T16:56:18.018Z,3.55
2023-01-22T16:58:44.409Z,3.50
2023-01-22T17:01:14.046Z,3.80
2023-01-22T17:03:40.625Z,3.78
2023-01-22T17:06:07.206Z,3.40
2023-01-22T17:08:33.684Z,3.70
2023-01-22T17:11:00.006Z,3.88
2023-01-22T17:13:26.317Z,3.72
2023-01-22T17:15:53.673Z,3.80
2023-01-22T17:18:20.112Z,3.72
2023-01-22T17:21:01.389Z,3.97
2023-01-22T17:23:28.431Z,3.83
2023-01-22T17:25:54.848Z,3.85
2023-01-22T17:28:22.074Z,4.20
2023-01-22T17:30:48.888Z,3.42
2023-01-22T17:33:15.442Z,3.40
2023-01-22T17:35:44.439Z,4.93
2023-01-22T17:38:10.783Z,4.75
2023-01-22T17:40:37.405Z,3.80
2023-01-22T17:43:04.119Z,4.50
2023-01-22T17:45:30.548Z,4.43
2023-01-22T17:47:56.975Z,4.93
2023-01-22T17:50:23.380Z,5.50
2023-01-22T17:52:49.853Z,5.40
2023-01-22T17:55:16.288Z,5.32
2023-01-22T17:57:42.704Z,4.88
2023-01-22T18:00:10.000Z,4.78
2023-01-22T18:02:36.390Z,4.53
2023-01-22T18:05:02.791Z,4.57
2023-01-22T18:07:29.100Z,4.63
2023-01-22T18:09:55.509Z,4.60
2023-01-22T18:12:21.893Z,4.72
2023-01-22T18:14:48.333Z,4.65
2023-01-22T18:17:14.656Z,5.13
2023-01-22T18:19:41.028Z,4.53
2023-01-22T18:22:07.356Z,4.53
2023-01-22T18:24:36.241Z,4.82
2023-01-22T18:27:02.574Z,4.70
2023-01-22T18:29:30.236Z,4.55
2023-01-22T18:31:56.734Z,5.20
2023-01-22T18:34:23.202Z,4.65
2023-01-22T18:36:49.678Z,4.18
2023-01-22T18:39:17.678Z,5.15
2023-01-22T18:41:45.095Z,4.95
2023-01-22T18:44:12.979Z,4.53
2023-01-22T18:46:42.207Z,4.20
2023-01-22T18:49:11.527Z,4.03
2023-01-22T18:51:38.160Z,4.93
2023-01-22T18:54:07.436Z,4.70
2023-01-22T18:56:34.270Z,4.80
2023-01-22T18:59:00.870Z,4.43
2023-01-22T19:01:28.981Z,4.80
2023-01-22T19:03:58.201Z,6.50
2023-01-22T19:06:25.876Z,5.18
2023-01-22T19:09:02.712Z,5.22
2023-01-22T19:11:37.601Z,4.90
2023-01-22T19:14:06.075Z,4.93
2023-01-22T19:16:33.167Z,5.25
2023-01-22T19:19:00.704Z,4.80
2023-01-22T19:21:27.618Z,5.38
2023-01-22T19:23:55.661Z,5.40
2023-01-22T19:26:26.603Z,5.50
2023-01-22T19:28:54.706Z,5.43
2023-01-22T19:31:23.180Z,5.05
2023-01-22T19:33:50.394Z,5.15
2023-01-22T19:36:17.157Z,6.20
2023-01-22T19:38:43.517Z,5.38
2023-01-22T19:41:10.237Z,5.07
2023-01-22T19:43:36.938Z,5.10
2023-01-22T19:46:04.390Z,5.30
2023-01-22T19:48:31.328Z,5.97
2023-01-22T19:51:01.568Z,5.68
2023-01-22T19:53:28.369Z,5.40
2023-01-22T19:55:54.757Z,4.78
2023-01-22T19:58:21.431Z,5.55
2023-01-22T20:00:47.905Z,5.07
2023-01-22T20:03:14.313Z,5.13
2023-01-22T20:05:41.344Z,5.88
2023-01-22T20:08:08.073Z,5.25
2023-01-22T20:10:37.307Z,5.22
2023-01-22T20:13:04.290Z,5.28
2023-01-22T20:15:30.911Z,5.85
2023-01-22T20:17:57.267Z,5.45
2023-01-22T20:20:23.734Z,5.18
2023-01-22T20:22:52.215Z,4.70
2023-01-22T20:25:20.907Z,5.18
2023-01-22T20:27:48.288Z,5.50
2023-01-22T20:30:14.754Z,6.80
2023-01-22T20:32:41.084Z,5.40
2023-01-22T20:35:07.709Z,5.88
2023-01-22T20:37:34.218Z,6.35
2023-01-22T20:40:00.863Z,4.60
2023-01-22T20:42:28.356Z,5.78
2023-01-22T20:44:58.170Z,6.57
2023-01-22T20:47:24.910Z,5.82
2023-01-22T20:49:51.322Z,6.43
2023-01-22T20:52:17.799Z,5.93
2023-01-22T20:55:00.485Z,6.65
2023-01-22T20:57:28.904Z,6.47
2023-01-22T20:59:55.271Z,6.00
2023-01-22T21:02:21.700Z,6.85
2023-01-22T21:04:50.270Z,6.45
2023-01-22T21:07:16.650Z,7.10
2023-01-22T21:09:43.307Z,6.53
2023-01-22T21:12:12.994Z,5.82
2023-01-22T21:14:39.987Z,7.22
2023-01-22T21:17:06.341Z,6.80
2023-01-22T21:19:32.885Z,6.43
2023-01-22T21:22:00.975Z,7.28
2023-01-22T21:24:27.607Z,6.68
2023-01-22T21:26:53.941Z,6.90
2023-01-22T21:29:21.679Z,6.55
2023-01-22T21:31:49.690Z,7.18
2023-01-22T21:34:17.363Z,6.32
2023-01-22T21:36:45.118Z,7.03
2023-01-22T21:39:14.581Z,7.53
2023-01-22T21:41:41.648Z,6.43
2023-01-22T21:44:29.316Z,7.22
2023-01-22T21:46:57.252Z,7.20
2023-01-22T21:49:24.550Z,6.65
2023-01-22T21:51:58.083Z,6.90
2023-01-22T21:54:37.747Z,7.28
2023-01-22T21:57:05.075Z,7.25
2023-01-22T21:59:31.427Z,6.53
2023-01-22T22:01:57.862Z,6.18
2023-01-22T22:04:25.492Z,6.05
2023-01-22T22:06:52.203Z,6.78
2023-01-22T22:09:20.925Z,6.28
2023-01-22T22:11:47.893Z,5.53
2023-01-22T22:14:18.024Z,5.93
2023-01-22T22:16:44.501Z,6.03
2023-01-22T22:19:11.307Z,6.18
2023-01-22T22:21:37.694Z,5.75
2023-01-22T22:24:04.315Z,6.22
2023-01-22T22:26:30.864Z,6.68
2023-01-22T22:28:57.340Z,5.28
2023-01-22T22:31:24.221Z,6.53
2023-01-22T22:33:51.804Z,5.97
2023-01-22T22:36:19.329Z,5.93
2023-01-22T22:38:46.146Z,3.65
2023-01-22T22:41:17.405Z,5.43
2023-01-22T22:43:44.704Z,5.82
2023-01-22T22:46:15.478Z,5.93
2023-01-22T22:48:42.145Z,6.35
2023-01-22T22:51:09.552Z,5.93
2023-01-22T22:53:35.879Z,5.97
2023-01-22T22:56:03.094Z,5.95
2023-01-22T22:58:29.420Z,6.80
2023-01-22T23:00:55.769Z,5.82
2023-01-22T23:03:22.160Z,6.57
2023-01-22T23:05:48.567Z,5.95
2023-01-22T23:08:15.112Z,6.40
2023-01-22T23:10:41.497Z,6.53
2023-01-22T23:13:07.890Z,6.05
2023-01-22T23:15:34.257Z,5.95
2023-01-22T23:18:00.744Z,6.15
2023-01-22T23:20:27.737Z,5.63
2023-01-22T23:22:55.023Z,6.07
2023-01-22T23:25:21.498Z,5.57
2023-01-22T23:27:48.259Z,5.97
2023-01-22T23:30:14.762Z,5.10
2023-01-22T23:32:41.162Z,5.80
2023-01-22T23:35:07.620Z,6.20
2023-01-22T23:37:34.037Z,5.10
2023-01-22T23:40:00.435Z,5.80
2023-01-22T23:42:26.746Z,5.53
2023-01-22T23:44:53.136Z,5.53
2023-01-22T23:47:20.784Z,5.70
2023-01-22T23:49:47.130Z,6.47
2023-01-22T23:52:13.519Z,5.70
2023-01-22T23:54:40.065Z,6.50
2023-01-22T23:57:06.371Z,5.90
2023-01-22T23:59:32.678Z,5.78
